Time;durP1;ratioP1;P1;durP2;ratioP2;P2;SDS_P1;SDS_P2;PMS_P1;PMS_P2;Temp;Humidity;BMP_temperature;BMP_pressure;BME280_temperature;BME280_humidity;BME280_pressure;Samples;Min_cycle;Max_cycle;Signal;HPM_P1;HPM_P2
2023/06/15 00:00:46;;;;;;;;;;;;;;;;;;4974311;28;8757;-85
2023/06/15 00:03:12;;;;;;;;;;;;;;;;;;4974752;28;7258;-86
2023/06/15 00:05:37;;;;;;;;;;;;;;;;;;4974496;28;8583;-85
2023/06/15 00:08:03;;;;;;;;;;;;;;;;;;4974281;28;8480;-85
2023/06/15 00:10:29;;;;;;;;;;;;;;;;;;4974540;28;8387;-84
2023/06/15 00:12:54;;;;;;;;;;;;;;;;;;4973931;28;8463;-85
2023/06/15 00:15:21;;;;;;;;;;;;;;;;;;4974350;28;8807;-85
2023/06/15 00:17:47;;;;;;;;;;;;;;;;;;4974031;28;8813;-85
2023/06/15 00:20:13;;;;;;;;;;;;;;;;;;4974075;28;9242;-85
2023/06/15 00:22:41;;;;;;;;;;;;;;;;;;4974030;28;8911;-85
2023/06/15 00:25:10;;;;;;;;;;;;;;;;;;4973931;28;7560;-85
2023/06/15 00:27:36;;;;;;;;;;;;;;;;;;4974227;28;7533;-85
2023/06/15 00:30:03;;;;;;;;;;;;;;;;;;4973921;28;8457;-85
2023/06/15 00:32:28;;;;;;;;;;;;;;;;;;4974099;28;7152;-85
2023/06/15 00:34:54;;;;;;;;;;;;;;;;;;5006217;28;7115;-85
2023/06/15 00:37:20;;;;;;;;;;;;;;;;;;4973866;28;8569;-85
2023/06/15 00:39:46;;;;;;;;;;;;;;;;;;4973710;28;8851;-85
2023/06/15 00:42:11;;;;;;;;;;;;;;;;;;4973837;28;8676;-85
2023/06/15 00:44:37;;;;;;;;;;;;;;;;;;4973442;28;8543;-85
2023/06/15 00:47:03;;;;;;;;;;;;;;;;;;4973575;28;8637;-85
2023/06/15 00:49:29;;;;;;;;;;;;;;;;;;4973409;28;8600;-85
2023/06/15 00:51:56;;;;;;;;;;;;;;;;;;4973785;28;9477;-85
2023/06/15 00:54:23;;;;;;;;;;;;;;;;;;4975537;28;8663;-85
2023/06/15 00:56:50;;;;;;;;;;;;;;;;;;5009203;28;8711;-85
2023/06/15 00:59:16;;;;;;;;;;;;;;;;;;5009210;28;9293;-85
2023/06/15 01:01:42;;;;;;;;;;;;;;;;;;5009047;28;8969;-85
2023/06/15 01:04:08;;;;;;;;;;;;;;;;;;5009279;28;8875;-85
2023/06/15 01:06:41;;;;;;;;;;;;;;;;;;5008498;28;7399;-85
2023/06/15 01:09:11;;;;;;;;;;;;;;;;;;5009182;28;9117;-85
2023/06/15 01:11:38;;;;;;;;;;;;;;;;;;5009110;28;9408;-85
2023/06/15 01:14:05;;;;;;;;;;;;;;;;;;5008907;28;9820;-85
2023/06/15 01:16:37;;;;;;;;;;;;;;;;;;5009090;28;7145;-83
2023/06/15 01:19:09;;;;;;;;;;;;;;;;;;5009096;28;8912;-86
2023/06/15 01:21:37;;;;;;;;;;;;;;;;;;5009111;28;8934;-85
2023/06/15 01:24:12;;;;;;;;;;;;;;;;;;5009257;28;8994;-85
2023/06/15 01:26:38;;;;;;;;;;;;;;;;;;5008911;28;8997;-84
2023/06/15 01:29:06;;;;;;;;;;;;;;;;;;5008034;28;8557;-84
2023/06/15 01:31:32;;;;;;;;;;;;;;;;;;4996155;28;9012;-85
2023/06/15 01:34:00;;;;;;;;;;;;;;;;;;4979178;28;8582;-84
2023/06/15 01:36:26;;;;;;;;;;;;;;;;;;4980515;28;8534;-85
2023/06/15 01:38:54;;;;;;;;;;;;;;;;;;4997229;28;8519;-84
2023/06/15 01:41:23;;;;;;;;;;;;;;;;;;4972226;28;8532;-84
2023/06/15 01:43:50;;;;;;;;;;;;;;;;;;4971856;28;7214;-85
2023/06/15 01:46:16;;;;;;;;;;;;;;;;;;4972764;28;8477;-84
2023/06/15 01:48:41;;;;;;;;;;;;;;;;;;4972781;28;8616;-84
2023/06/15 01:51:08;;;;;;;;;;;;;;;;;;4973356;28;8526;-84
2023/06/15 01:53:35;;;;;;;;;;;;;;;;;;4972933;28;8611;-85
2023/06/15 01:56:02;;;;;;;;;;;;;;;;;;4972827;28;7233;-84
2023/06/15 01:58:27;;;;;;;;;;;;;;;;;;4972889;28;9511;-84
2023/06/15 02:00:52;;;;;;;;;;;;;;;;;;4972940;28;8648;-84
2023/06/15 02:03:18;;;;;;;;;;;;;;;;;;4972643;28;8521;-84
2023/06/15 02:05:43;;;;;;;;;;;;;;;;;;4973065;28;8474;-84
2023/06/15 02:08:10;;;;;;;;;;;;;;;;;;4972756;28;8503;-85
2023/06/15 02:10:36;;;;;;;;;;;;;;;;;;4972745;28;8550;-85
2023/06/15 02:13:02;;;;;;;;;;;;;;;;;;4972428;28;8640;-85
2023/06/15 02:15:28;;;;;;;;;;;;;;;;;;4973173;28;8483;-85
2023/06/15 02:17:58;;;;;;;;;;;;;;;;;;4973958;28;8591;-85
2023/06/15 02:20:25;;;;;;;;;;;;;;;;;;4976493;28;8939;-85
2023/06/15 02:22:52;;;;;;;;;;;;;;;;;;4976207;28;7264;-85
2023/06/15 02:25:18;;;;;;;;;;;;;;;;;;4976097;28;8918;-85
2023/06/15 02:27:44;;;;;;;;;;;;;;;;;;4976384;28;8629;-85
2023/06/15 02:30:11;;;;;;;;;;;;;;;;;;4976085;28;7248;-85
2023/06/15 02:32:39;;;;;;;;;;;;;;;;;;4976187;28;8586;-85
2023/06/15 02:35:07;;;;;;;;;;;;;;;;;;4975994;28;8555;-85
2023/06/15 02:37:33;;;;;;;;;;;;;;;;;;4975947;28;8703;-85
2023/06/15 02:39:59;;;;;;;;;;;;;;;;;;4976254;28;8905;-85
2023/06/15 02:42:25;;;;;;;;;;;;;;;;;;4975665;28;7440;-84
2023/06/15 02:44:50;;;;;;;;;;;;;;;;;;4975639;28;8448;-85
2023/06/15 02:47:16;;;;;;;;;;;;;;;;;;4975776;28;8728;-84
2023/06/15 02:49:42;;;;;;;;;;;;;;;;;;4975482;28;8499;-85
2023/06/15 02:52:07;;;;;;;;;;;;;;;;;;4975821;28;8896;-85
2023/06/15 02:54:34;;;;;;;;;;;;;;;;;;4975781;28;8717;-85
2023/06/15 02:57:01;;;;;;;;;;;;;;;;;;4975586;28;7151;-85
2023/06/15 02:59:26;;;;;;;;;;;;;;;;;;4975645;28;8840;-85
2023/06/15 03:01:52;;;;;;;;;;;;;;;;;;4975419;28;8780;-85
2023/06/15 03:04:21;;;;;;;;;;;;;;;;;;4975569;28;8563;-84
2023/06/15 03:06:50;;;;;;;;;;;;;;;;;;4975399;28;7110;-85
2023/06/15 03:09:17;;;;;;;;;;;;;;;;;;4975555;28;8506;-85
2023/06/15 03:11:43;;;;;;;;;;;;;;;;;;4975275;28;7310;-85
2023/06/15 03:14:10;;;;;;;;;;;;;;;;;;4975700;28;8598;-84
2023/06/15 03:16:40;;;;;;;;;;;;;;;;;;4975282;28;8953;-85
2023/06/15 03:19:07;;;;;;;;;;;;;;;;;;4975345;28;9091;-85
2023/06/15 03:21:33;;;;;;;;;;;;;;;;;;4975432;28;7153;-85
2023/06/15 03:23:59;;;;;;;;;;;;;;;;;;4975272;28;9047;-85
2023/06/15 03:26:26;;;;;;;;;;;;;;;;;;4975160;28;7455;-85
2023/06/15 03:28:53;;;;;;;;;;;;;;;;;;4974736;28;8588;-84
2023/06/15 03:31:19;;;;;;;;;;;;;;;;;;4974757;28;9254;-84
2023/06/15 03:33:46;;;;;;;;;;;;;;;;;;4975409;28;8495;-83
2023/06/15 03:36:14;;;;;;;;;;;;;;;;;;4974798;28;8791;-85
2023/06/15 03:38:41;;;;;;;;;;;;;;;;;;4975425;28;8931;-84
2023/06/15 03:41:07;;;;;;;;;;;;;;;;;;4975265;28;9282;-84
2023/06/15 03:43:34;;;;;;;;;;;;;;;;;;4974864;28;7290;-84
2023/06/15 03:46:00;;;;;;;;;;;;;;;;;;4974623;28;8784;-85
2023/06/15 03:48:26;;;;;;;;;;;;;;;;;;4974708;28;7135;-85
2023/06/15 03:50:51;;;;;;;;;;;;;;;;;;4974560;28;8776;-84
2023/06/15 03:53:17;;;;;;;;;;;;;;;;;;4974907;28;8530;-87
2023/06/15 03:55:43;;;;;;;;;;;;;;;;;;4974786;28;8801;-87
2023/06/15 03:58:08;;;;;;;;;;;;;;;;;;4974905;28;8831;-86
2023/06/15 04:00:34;;;;;;;;;;;;;;;;;;4974565;28;8508;-85
2023/06/15 04:02:59;;;;;;;;;;;;;;;;;;4974485;28;8511;-84
2023/06/15 04:05:25;;;;;;;;;;;;;;;;;;4982273;28;8774;-84
2023/06/15 04:07:51;;;;;;;;;;;;;;;;;;4996618;28;8507;-84
2023/06/15 04:10:16;;;;;;;;;;;;;;;;;;4973612;28;8574;-84
2023/06/15 04:12:42;;;;;;;;;;;;;;;;;;4973788;28;8663;-84
2023/06/15 04:15:08;;;;;;;;;;;;;;;;;;4973947;28;8558;-84
2023/06/15 04:17:33;;;;;;;;;;;;;;;;;;4974412;28;7131;-83
2023/06/15 04:19:59;;;;;;;;;;;;;;;;;;4973661;28;7244;-83
2023/06/15 04:22:25;;;;;;;;;;;;;;;;;;4973968;28;8598;-84
2023/06/15 04:24:51;;;;;;;;;;;;;;;;;;4973846;28;8433;-84
2023/06/15 04:27:19;;;;;;;;;;;;;;;;;;4974129;28;7284;-84
2023/06/15 04:29:49;;;;;;;;;;;;;;;;;;4973771;28;9134;-84
2023/06/15 04:32:17;;;;;;;;;;;;;;;;;;4973788;28;9259;-83
2023/06/15 04:34:45;;;;;;;;;;;;;;;;;;4973922;28;8596;-84
2023/06/15 04:37:16;;;;;;;;;;;;;;;;;;4974246;28;7255;-83
2023/06/15 04:39:42;;;;;;;;;;;;;;;;;;4973717;28;8903;-84
2023/06/15 04:42:09;;;;;;;;;;;;;;;;;;4973233;28;8543;-84
2023/06/15 04:44:35;;;;;;;;;;;;;;;;;;4973591;28;7350;-85
2023/06/15 04:47:04;;;;;;;;;;;;;;;;;;4973517;28;9198;-84
2023/06/15 04:49:31;;;;;;;;;;;;;;;;;;4973963;28;8556;-83
2023/06/15 04:51:57;;;;;;;;;;;;;;;;;;4973476;28;8574;-84
2023/06/15 04:54:22;;;;;;;;;;;;;;;;;;4973489;28;8522;-84
2023/06/15 04:56:48;;;;;;;;;;;;;;;;;;4973556;28;8807;-85
2023/06/15 04:59:14;;;;;;;;;;;;;;;;;;4973428;28;8487;-84
2023/06/15 05:01:39;;;;;;;;;;;;;;;;;;4973315;28;7233;-84
2023/06/15 05:04:05;;;;;;;;;;;;;;;;;;4973645;28;8592;-83
2023/06/15 05:06:31;;;;;;;;;;;;;;;;;;4973331;28;8502;-84
2023/06/15 05:08:56;;;;;;;;;;;;;;;;;;4973317;28;8658;-84
2023/06/15 05:11:22;;;;;;;;;;;;;;;;;;4973631;28;8677;-85
2023/06/15 05:13:47;;;;;;;;;;;;;;;;;;4973170;28;7128;-84
2023/06/15 05:16:13;;;;;;;;;;;;;;;;;;4973157;28;8788;-84
2023/06/15 05:18:38;;;;;;;;;;;;;;;;;;4973236;28;8465;-85
2023/06/15 05:21:03;;;;;;;;;;;;;;;;;;4973394;28;7261;-84
2023/06/15 05:23:29;;;;;;;;;;;;;;;;;;4973199;28;8522;-84
2023/06/15 05:25:55;;;;;;;;;;;;;;;;;;4973178;28;7092;-84
2023/06/15 05:28:20;;;;;;;;;;;;;;;;;;4973064;28;8250;-84
2023/06/15 05:30:46;;;;;;;;;;;;;;;;;;4973220;28;8502;-87
2023/06/15 05:33:12;;;;;;;;;;;;;;;;;;4973264;28;8682;-85
2023/06/15 05:35:38;;;;;;;;;;;;;;;;;;4973078;28;8936;-86
2023/06/15 05:38:03;;;;;;;;;;;;;;;;;;4973212;28;7300;-86
2023/06/15 05:40:29;;;;;;;;;;;;;;;;;;4973119;28;8673;-87
2023/06/15 05:42:56;;;;;;;;;;;;;;;;;;4973104;28;8492;-86
2023/06/15 05:45:22;;;;;;;;;;;;;;;;;;4973148;28;8583;-87
2023/06/15 05:47:47;;;;;;;;;;;;;;;;;;4975675;28;8738;-86
2023/06/15 05:50:13;;;;;;;;;;;;;;;;;;4983857;28;6933;-85
2023/06/15 05:52:38;;;;;;;;;;;;;;;;;;4992781;28;8844;-82
2023/06/15 05:55:04;;;;;;;;;;;;;;;;;;4989970;28;8022;-86
2023/06/15 05:57:30;;;;;;;;;;;;;;;;;;5010451;28;8510;-84
2023/06/15 05:59:55;;;;;;;;;;;;;;;;;;5009789;28;8553;-84
2023/06/15 06:02:21;;;;;;;;;;;;;;;;;;5009681;28;8893;-83
2023/06/15 06:04:46;;;;;;;;;;;;;;;;;;5010466;28;8531;-84
2023/06/15 06:07:12;;;;;;;;;;;;;;;;;;5010321;28;8546;-84
2023/06/15 06:09:38;;;;;;;;;;;;;;;;;;5011298;28;8530;-83
2023/06/15 06:12:03;;;;;;;;;;;;;;;;;;5011802;28;9792;-85
2023/06/15 06:14:29;;;;;;;;;;;;;;;;;;5011782;28;8590;-85
2023/06/15 06:16:55;;;;;;;;;;;;;;;;;;5011781;28;9464;-84
2023/06/15 06:19:21;;;;;;;;;;;;;;;;;;5011123;28;8066;-83
2023/06/15 06:21:47;;;;;;;;;;;;;;;;;;5012444;28;8751;-87
2023/06/15 06:24:12;;;;;;;;;;;;;;;;;;5011729;28;7213;-86
2023/06/15 06:26:38;;;;;;;;;;;;;;;;;;5011967;28;8500;-86
2023/06/15 06:29:04;;;;;;;;;;;;;;;;;;5012022;28;8486;-86
2023/06/15 06:31:30;;;;;;;;;;;;;;;;;;5005073;28;8539;-87
2023/06/15 06:33:56;;;;;;;;;;;;;;;;;;4988598;28;8557;-87
2023/06/15 06:36:21;;;;;;;;;;;;;;;;;;5003636;28;9025;-87
2023/06/15 06:38:47;;;;;;;;;;;;;;;;;;4976614;28;8528;-87
2023/06/15 06:41:13;;;;;;;;;;;;;;;;;;4989552;28;7126;-86
2023/06/15 06:43:39;;;;;;;;;;;;;;;;;;5009171;28;8517;-86
2023/06/15 06:46:05;;;;;;;;;;;;;;;;;;4975630;28;9257;-85
2023/06/15 06:48:31;;;;;;;;;;;;;;;;;;4989974;28;8741;-88
2023/06/15 06:50:56;;;;;;;;;;;;;;;;;;4998024;28;8889;-86
2023/06/15 06:53:21;;;;;;;;;;;;;;;;;;4975691;28;8584;-86
2023/06/15 06:55:48;;;;;;;;;;;;;;;;;;4975679;28;7169;-86
2023/06/15 06:58:14;;;;;;;;;;;;;;;;;;4975290;28;9086;-85
2023/06/15 07:00:40;;;;;;;;;;;;;;;;;;4975324;28;8910;-86
2023/06/15 07:03:05;;;;;;;;;;;;;;;;;;4975562;28;8548;-86
2023/06/15 07:05:31;;;;;;;;;;;;;;;;;;4992030;28;8484;-85
2023/06/15 07:07:56;;;;;;;;;;;;;;;;;;5011179;28;8560;-88
2023/06/15 07:10:22;;;;;;;;;;;;;;;;;;5011012;28;8523;-86
2023/06/15 07:12:48;;;;;;;;;;;;;;;;;;5010936;28;8506;-87
2023/06/15 07:15:13;;;;;;;;;;;;;;;;;;5010823;28;8519;-86
2023/06/15 07:17:39;;;;;;;;;;;;;;;;;;5010684;28;8514;-86
2023/06/15 07:20:06;;;;;;;;;;;;;;;;;;5011001;28;7280;-84
2023/06/15 07:22:31;;;;;;;;;;;;;;;;;;5010862;28;8809;-86
2023/06/15 07:24:57;;;;;;;;;;;;;;;;;;5010912;28;8571;-85
2023/06/15 07:27:22;;;;;;;;;;;;;;;;;;5010947;28;8495;-85
2023/06/15 07:29:48;;;;;;;;;;;;;;;;;;5010561;28;7668;-87
2023/06/15 07:32:14;;;;;;;;;;;;;;;;;;5007580;28;7143;-86
2023/06/15 07:34:39;;;;;;;;;;;;;;;;;;5008866;28;8578;-86
2023/06/15 07:37:06;;;;;;;;;;;;;;;;;;5010635;28;7209;-85
2023/06/15 07:39:32;;;;;;;;;;;;;;;;;;5010605;28;7220;-85
2023/06/15 07:41:57;;;;;;;;;;;;;;;;;;5010651;28;8509;-85
2023/06/15 07:44:23;;;;;;;;;;;;;;;;;;5004030;28;8591;-85
2023/06/15 07:46:48;;;;;;;;;;;;;;;;;;4998330;28;8529;-86
2023/06/15 07:49:14;;;;;;;;;;;;;;;;;;4986769;28;8511;-86
2023/06/15 07:51:40;;;;;;;;;;;;;;;;;;5010242;28;8592;-88
2023/06/15 07:54:06;;;;;;;;;;;;;;;;;;5010766;28;8789;-87
2023/06/15 07:56:31;;;;;;;;;;;;;;;;;;5010161;28;8574;-87
2023/06/15 07:58:57;;;;;;;;;;;;;;;;;;5010242;28;8526;-87
2023/06/15 08:01:22;;;;;;;;;;;;;;;;;;5010016;28;8843;-86
2023/06/15 08:03:47;;;;;;;;;;;;;;;;;;5010612;28;8507;-86
2023/06/15 08:06:13;;;;;;;;;;;;;;;;;;5010452;28;7221;-87
2023/06/15 08:08:38;;;;;;;;;;;;;;;;;;5006948;28;8690;-87
2023/06/15 08:11:07;;;;;;;;;;;;;;;;;;4984704;28;8666;-87
2023/06/15 08:13:33;;;;;;;;;;;;;;;;;;5009914;28;8550;-88
2023/06/15 08:15:59;;;;;;;;;;;;;;;;;;5009511;28;8788;-88
2023/06/15 08:18:26;;;;;;;;;;;;;;;;;;5009877;28;7149;-87
2023/06/15 08:20:52;;;;;;;;;;;;;;;;;;5006108;28;8527;-85
2023/06/15 08:23:17;;;;;;;;;;;;;;;;;;5000923;28;8555;-87
2023/06/15 08:25:43;;;;;;;;;;;;;;;;;;5009852;28;8526;-85
2023/06/15 08:28:09;;;;;;;;;;;;;;;;;;4995797;28;8952;-84
2023/06/15 08:30:35;;;;;;;;;;;;;;;;;;5003231;28;8581;-85
2023/06/15 08:33:00;;;;;;;;;;;;;;;;;;4994528;28;8571;-86
2023/06/15 08:35:26;;;;;;;;;;;;;;;;;;5009486;28;8525;-85
2023/06/15 08:37:52;;;;;;;;;;;;;;;;;;5009385;28;9559;-86
2023/06/15 08:40:19;;;;;;;;;;;;;;;;;;5000929;28;8774;-86
2023/06/15 08:42:45;;;;;;;;;;;;;;;;;;4973674;28;9232;-84
2023/06/15 08:45:11;;;;;;;;;;;;;;;;;;4973314;28;8532;-85
2023/06/15 08:47:38;;;;;;;;;;;;;;;;;;4973491;28;8538;-86
2023/06/15 08:50:06;;;;;;;;;;;;;;;;;;4980903;28;7396;-85
2023/06/15 08:52:35;;;;;;;;;;;;;;;;;;5005935;28;7449;-88
2023/06/15 08:55:03;;;;;;;;;;;;;;;;;;5005598;28;9066;-86
2023/06/15 08:57:30;;;;;;;;;;;;;;;;;;4992866;28;8713;-83
2023/06/15 08:59:56;;;;;;;;;;;;;;;;;;4992985;28;8499;-84
2023/06/15 09:02:24;;;;;;;;;;;;;;;;;;4989111;28;9158;-85
2023/06/15 09:04:51;;;;;;;;;;;;;;;;;;4991146;28;9552;-86
2023/06/15 09:07:20;;;;;;;;;;;;;;;;;;4989442;28;8519;-84
2023/06/15 09:10:04;;;;;;;;;;;;;;;;;;4991712;28;7435;-85
2023/06/15 09:12:30;;;;;;;;;;;;;;;;;;5009029;28;8650;-85
2023/06/15 09:14:55;;;;;;;;;;;;;;;;;;5009074;28;8595;-85
2023/06/15 09:17:27;;;;;;;;;;;;;;;;;;5009214;28;7101;-85
2023/06/15 09:19:53;;;;;;;;;;;;;;;;;;4994044;28;7259;-83
2023/06/15 09:22:19;;;;;;;;;;;;;;;;;;5003360;28;8551;-86
2023/06/15 09:24:46;;;;;;;;;;;;;;;;;;4985731;28;7273;-85
2023/06/15 09:27:15;;;;;;;;;;;;;;;;;;4997111;28;9092;-85
2023/06/15 09:30:01;;;;;;;;;;;;;;;;;;4991859;28;8746;-85
2023/06/15 09:32:30;;;;;;;;;;;;;;;;;;4988792;28;8959;-88
2023/06/15 09:34:58;;;;;;;;;;;;;;;;;;4997278;28;8581;-87
2023/06/15 09:37:30;;;;;;;;;;;;;;;;;;4996276;28;7284;-84
2023/06/15 09:39:56;;;;;;;;;;;;;;;;;;4994457;28;8619;-86
2023/06/15 09:42:28;;;;;;;;;;;;;;;;;;4986672;28;8539;-86
2023/06/15 09:44:54;;;;;;;;;;;;;;;;;;4992890;28;7554;-87
2023/06/15 09:47:20;;;;;;;;;;;;;;;;;;4993158;28;9025;-85
2023/06/15 09:49:48;;;;;;;;;;;;;;;;;;4993298;28;8569;-85
2023/06/15 09:52:13;;;;;;;;;;;;;;;;;;4992909;28;8539;-85
2023/06/15 09:54:39;;;;;;;;;;;;;;;;;;5009158;28;8539;-85
2023/06/15 09:57:05;;;;;;;;;;;;;;;;;;5012221;28;8749;-84
2023/06/15 09:59:31;;;;;;;;;;;;;;;;;;5012247;28;8529;-84
2023/06/15 10:01:59;;;;;;;;;;;;;;;;;;5012238;28;8039;-85
2023/06/15 10:04:28;;;;;;;;;;;;;;;;;;5012026;28;8528;-85
2023/06/15 10:07:00;;;;;;;;;;;;;;;;;;5012333;28;8513;-84
2023/06/15 10:09:29;;;;;;;;;;;;;;;;;;5012260;28;8670;-84
2023/06/15 10:12:06;;;;;;;;;;;;;;;;;;5012208;28;8900;-85
2023/06/15 10:14:35;;;;;;;;;;;;;;;;;;5012005;28;7202;-84
2023/06/15 10:17:02;;;;;;;;;;;;;;;;;;5012277;28;8557;-85
2023/06/15 10:19:31;;;;;;;;;;;;;;;;;;5011790;28;8623;-86
2023/06/15 10:21:58;;;;;;;;;;;;;;;;;;5012306;28;8942;-85
2023/06/15 10:24:25;;;;;;;;;;;;;;;;;;5011889;28;8586;-85
2023/06/15 10:26:51;;;;;;;;;;;;;;;;;;5011976;28;8730;-85
2023/06/15 10:29:28;;;;;;;;;;;;;;;;;;4995569;28;8519;-85
2023/06/15 10:32:10;;;;;;;;;;;;;;;;;;5011897;28;8591;-85
2023/06/15 10:35:03;;;;;;;;;;;;;;;;;;5011950;28;8831;-86
2023/06/15 10:37:38;;;;;;;;;;;;;;;;;;4995449;28;8658;-84
2023/06/15 10:40:24;;;;;;;;;;;;;;;;;;5011614;28;8672;-84
2023/06/15 10:42:50;;;;;;;;;;;;;;;;;;5011306;28;8562;-84
2023/06/15 10:45:21;;;;;;;;;;;;;;;;;;5011725;28;7163;-85
2023/06/15 10:47:48;;;;;;;;;;;;;;;;;;5011890;28;8535;-85
2023/06/15 10:50:15;;;;;;;;;;;;;;;;;;5011799;28;8949;-84
2023/06/15 10:52:41;;;;;;;;;;;;;;;;;;5009761;28;8943;-85
2023/06/15 10:55:14;;;;;;;;;;;;;;;;;;5010749;28;7209;-84
2023/06/15 10:57:40;;;;;;;;;;;;;;;;;;5010525;28;8983;-84
2023/06/15 11:00:08;;;;;;;;;;;;;;;;;;5011085;28;7266;-84
2023/06/15 11:02:33;;;;;;;;;;;;;;;;;;5011152;28;8524;-83
2023/06/15 11:05:17;;;;;;;;;;;;;;;;;;5011420;28;8479;-85
2023/06/15 11:07:47;;;;;;;;;;;;;;;;;;5010896;28;8609;-85
2023/06/15 11:10:31;;;;;;;;;;;;;;;;;;5011007;28;8611;-85
2023/06/15 11:13:01;;;;;;;;;;;;;;;;;;5010888;28;8928;-85
2023/06/15 11:15:34;;;;;;;;;;;;;;;;;;5011124;28;8546;-85
2023/06/15 11:18:05;;;;;;;;;;;;;;;;;;5010857;28;8925;-85
2023/06/15 11:20:42;;;;;;;;;;;;;;;;;;5010955;28;8597;-86
2023/06/15 11:23:10;;;;;;;;;;;;;;;;;;4991275;28;7154;-85
2023/06/15 11:25:37;;;;;;;;;;;;;;;;;;4991161;28;9397;-85
2023/06/15 11:28:06;;;;;;;;;;;;;;;;;;4991035;28;7126;-85
2023/06/15 11:30:33;;;;;;;;;;;;;;;;;;4990794;28;8752;-85
2023/06/15 11:32:58;;;;;;;;;;;;;;;;;;5010398;28;7345;-89
2023/06/15 11:35:24;;;;;;;;;;;;;;;;;;5010769;28;9022;-82
2023/06/15 11:37:50;;;;;;;;;;;;;;;;;;5010416;28;8908;-82
2023/06/15 11:40:16;;;;;;;;;;;;;;;;;;5007311;28;7472;-82
2023/06/15 11:42:42;;;;;;;;;;;;;;;;;;5004088;28;8878;-82
2023/06/15 11:45:18;;;;;;;;;;;;;;;;;;4992538;28;8647;-81
2023/06/15 11:47:45;;;;;;;;;;;;;;;;;;4980582;28;7147;-81
2023/06/15 11:50:11;;;;;;;;;;;;;;;;;;5006360;28;8903;-83
2023/06/15 11:52:46;;;;;;;;;;;;;;;;;;4989529;28;9077;-81
2023/06/15 11:55:13;;;;;;;;;;;;;;;;;;5008798;28;8802;-82
2023/06/15 11:57:41;;;;;;;;;;;;;;;;;;5006940;28;8525;-80
2023/06/15 12:00:08;;;;;;;;;;;;;;;;;;4974217;28;8553;-82
2023/06/15 12:02:34;;;;;;;;;;;;;;;;;;4974365;28;8968;-83
2023/06/15 12:05:00;;;;;;;;;;;;;;;;;;4984105;28;8519;-82
2023/06/15 12:07:27;;;;;;;;;;;;;;;;;;4993665;28;8479;-82
2023/06/15 12:09:54;;;;;;;;;;;;;;;;;;5009871;28;7287;-81
2023/06/15 12:12:31;;;;;;;;;;;;;;;;;;5009881;28;9338;-82
2023/06/15 12:15:03;;;;;;;;;;;;;;;;;;4993615;28;8477;-83
2023/06/15 12:17:31;;;;;;;;;;;;;;;;;;5009806;28;8627;-82
2023/06/15 12:20:01;;;;;;;;;;;;;;;;;;5010363;28;8978;-82
2023/06/15 12:22:33;;;;;;;;;;;;;;;;;;5010027;28;8882;-80
2023/06/15 12:24:59;;;;;;;;;;;;;;;;;;5009660;28;8581;-82
2023/06/15 12:27:25;;;;;;;;;;;;;;;;;;5009522;28;8732;-82
2023/06/15 12:29:53;;;;;;;;;;;;;;;;;;5009675;28;8537;-80
2023/06/15 12:32:23;;;;;;;;;;;;;;;;;;5009830;28;8532;-82
2023/06/15 12:34:50;;;;;;;;;;;;;;;;;;5009509;28;8542;-80
2023/06/15 12:37:15;;;;;;;;;;;;;;;;;;5009860;28;8551;-82
2023/06/15 12:39:41;;;;;;;;;;;;;;;;;;5008193;28;8523;-82
2023/06/15 12:42:07;;;;;;;;;;;;;;;;;;4993355;28;7220;-83
2023/06/15 12:44:34;;;;;;;;;;;;;;;;;;5009160;28;9008;-83
2023/06/15 12:46:59;;;;;;;;;;;;;;;;;;5005904;28;8629;-82
2023/06/15 12:49:25;;;;;;;;;;;;;;;;;;4973541;28;8501;-82
2023/06/15 12:51:51;;;;;;;;;;;;;;;;;;4973622;28;8509;-80
2023/06/15 12:54:18;;;;;;;;;;;;;;;;;;4973829;28;9037;-80
2023/06/15 12:56:44;;;;;;;;;;;;;;;;;;4973376;28;8866;-80
2023/06/15 12:59:10;;;;;;;;;;;;;;;;;;4973614;28;8520;-81
2023/06/15 13:01:36;;;;;;;;;;;;;;;;;;4972787;28;8632;-81
2023/06/15 13:04:02;;;;;;;;;;;;;;;;;;4978736;28;9134;-82
2023/06/15 13:06:28;;;;;;;;;;;;;;;;;;5008848;28;8566;-84
2023/06/15 13:08:53;;;;;;;;;;;;;;;;;;5008942;28;8547;-82
2023/06/15 13:11:19;;;;;;;;;;;;;;;;;;5009585;28;8574;-81
2023/06/15 13:13:45;;;;;;;;;;;;;;;;;;5008830;28;8841;-82
2023/06/15 13:16:10;;;;;;;;;;;;;;;;;;5009171;28;8738;-83
2023/06/15 13:18:35;;;;;;;;;;;;;;;;;;5008650;28;7397;-81
2023/06/15 13:21:01;;;;;;;;;;;;;;;;;;5008186;28;7988;-83
2023/06/15 13:23:27;;;;;;;;;;;;;;;;;;4991787;28;8910;-82
2023/06/15 13:25:52;;;;;;;;;;;;;;;;;;4973262;28;8853;-82
2023/06/15 13:28:20;;;;;;;;;;;;;;;;;;4989207;28;8490;-82
2023/06/15 13:30:46;;;;;;;;;;;;;;;;;;5008614;28;8888;-80
2023/06/15 13:33:11;;;;;;;;;;;;;;;;;;5008719;28;8415;-82
2023/06/15 13:35:36;;;;;;;;;;;;;;;;;;5008738;28;8530;-81
2023/06/15 13:38:02;;;;;;;;;;;;;;;;;;5008864;28;8738;-83
2023/06/15 13:40:28;;;;;;;;;;;;;;;;;;4991614;28;8961;-81
2023/06/15 13:42:54;;;;;;;;;;;;;;;;;;5009097;28;8766;-82
2023/06/15 13:45:21;;;;;;;;;;;;;;;;;;5004570;28;8587;-81
2023/06/15 13:47:47;;;;;;;;;;;;;;;;;;4988203;28;8543;-81
2023/06/15 13:50:15;;;;;;;;;;;;;;;;;;5005452;28;8703;-81
2023/06/15 13:52:42;;;;;;;;;;;;;;;;;;4975742;28;8999;-81
2023/06/15 13:55:09;;;;;;;;;;;;;;;;;;4995612;28;8950;-81
2023/06/15 13:57:35;;;;;;;;;;;;;;;;;;5007991;28;7484;-82
2023/06/15 14:00:01;;;;;;;;;;;;;;;;;;5008836;28;8637;-80
2023/06/15 14:02:27;;;;;;;;;;;;;;;;;;5005419;28;8799;-82
2023/06/15 14:04:55;;;;;;;;;;;;;;;;;;4973251;28;9099;-83
2023/06/15 14:07:21;;;;;;;;;;;;;;;;;;4972867;28;7310;-82
2023/06/15 14:09:46;;;;;;;;;;;;;;;;;;4972467;28;8887;-82
2023/06/15 14:12:12;;;;;;;;;;;;;;;;;;4972390;28;8829;-81
2023/06/15 14:14:38;;;;;;;;;;;;;;;;;;4975112;28;8709;-82
2023/06/15 14:17:04;;;;;;;;;;;;;;;;;;4976475;28;7356;-81
2023/06/15 14:19:30;;;;;;;;;;;;;;;;;;4976162;28;9671;-82
2023/06/15 14:21:56;;;;;;;;;;;;;;;;;;4976477;28;8928;-81
2023/06/15 14:24:22;;;;;;;;;;;;;;;;;;4976120;28;8626;-82
2023/06/15 14:26:47;;;;;;;;;;;;;;;;;;4976102;28;8921;-80
2023/06/15 14:29:15;;;;;;;;;;;;;;;;;;4976040;28;7410;-81
2023/06/15 14:31:49;;;;;;;;;;;;;;;;;;4975954;28;8661;-81
2023/06/15 14:34:16;;;;;;;;;;;;;;;;;;4976013;28;9773;-81
2023/06/15 14:36:41;;;;;;;;;;;;;;;;;;4976542;28;7268;-82
2023/06/15 14:39:08;;;;;;;;;;;;;;;;;;4976381;28;8730;-88
2023/06/15 14:41:34;;;;;;;;;;;;;;;;;;5008683;28;8941;-89
2023/06/15 14:44:00;;;;;;;;;;;;;;;;;;5012091;28;7346;-94
2023/06/15 14:46:25;;;;;;;;;;;;;;;;;;5013094;28;9063;-87
2023/06/15 14:48:51;;;;;;;;;;;;;;;;;;5011525;28;9081;-87
2023/06/15 14:51:17;;;;;;;;;;;;;;;;;;5007608;28;8510;-85
2023/06/15 14:53:42;;;;;;;;;;;;;;;;;;4975673;28;9950;-86
2023/06/15 14:56:08;;;;;;;;;;;;;;;;;;4975483;28;8709;-86
2023/06/15 14:58:33;;;;;;;;;;;;;;;;;;4975650;28;8512;-85
2023/06/15 15:00:59;;;;;;;;;;;;;;;;;;4975435;28;9495;-86
2023/06/15 15:03:25;;;;;;;;;;;;;;;;;;4975538;28;8554;-85
2023/06/15 15:05:50;;;;;;;;;;;;;;;;;;4978900;28;8593;-86
2023/06/15 15:08:15;;;;;;;;;;;;;;;;;;5010937;28;8520;-85
2023/06/15 15:10:41;;;;;;;;;;;;;;;;;;5008928;28;8477;-86
2023/06/15 15:13:07;;;;;;;;;;;;;;;;;;5008236;28;8566;-89
2023/06/15 15:15:32;;;;;;;;;;;;;;;;;;5007278;28;7243;-86
2023/06/15 15:17:58;;;;;;;;;;;;;;;;;;4990571;28;8583;-85
2023/06/15 15:20:23;;;;;;;;;;;;;;;;;;4989740;28;8695;-85
2023/06/15 15:22:49;;;;;;;;;;;;;;;;;;4993877;28;8556;-85
2023/06/15 15:25:14;;;;;;;;;;;;;;;;;;5010018;28;8615;-86
2023/06/15 15:27:40;;;;;;;;;;;;;;;;;;5009561;28;8536;-87
2023/06/15 15:30:07;;;;;;;;;;;;;;;;;;4993569;28;8578;-85
2023/06/15 15:32:33;;;;;;;;;;;;;;;;;;5009493;28;8535;-84
2023/06/15 15:34:58;;;;;;;;;;;;;;;;;;5010093;28;8471;-88
2023/06/15 15:37:23;;;;;;;;;;;;;;;;;;5010002;28;7250;-86
2023/06/15 15:39:49;;;;;;;;;;;;;;;;;;5010592;28;8728;-85
2023/06/15 15:42:16;;;;;;;;;;;;;;;;;;5010358;28;8751;-86
2023/06/15 15:44:41;;;;;;;;;;;;;;;;;;4993659;28;8852;-88
2023/06/15 15:47:07;;;;;;;;;;;;;;;;;;4993854;28;8519;-87
2023/06/15 15:49:32;;;;;;;;;;;;;;;;;;5010270;28;8811;-86
2023/06/15 15:51:57;;;;;;;;;;;;;;;;;;5010240;28;8392;-86
2023/06/15 15:54:23;;;;;;;;;;;;;;;;;;5010314;28;8491;-86
2023/06/15 15:56:49;;;;;;;;;;;;;;;;;;5009746;28;8566;-88
2023/06/15 15:59:21;;;;;;;;;;;;;;;;;;5010173;28;8925;-90
2023/06/15 16:01:47;;;;;;;;;;;;;;;;;;5009816;28;9147;-88
2023/06/15 16:04:13;;;;;;;;;;;;;;;;;;5010308;28;8483;-89
2023/06/15 16:06:39;;;;;;;;;;;;;;;;;;5009719;28;8997;-89
2023/06/15 16:09:05;;;;;;;;;;;;;;;;;;5009726;28;8502;-90
2023/06/15 16:11:30;;;;;;;;;;;;;;;;;;4994947;28;8533;-89
2023/06/15 16:13:56;;;;;;;;;;;;;;;;;;4978595;28;8605;-86
2023/06/15 16:16:21;;;;;;;;;;;;;;;;;;5009575;28;9427;-88
2023/06/15 16:18:47;;;;;;;;;;;;;;;;;;5009960;28;7269;-85
2023/06/15 16:21:13;;;;;;;;;;;;;;;;;;5009300;28;8501;-86
2023/06/15 16:23:38;;;;;;;;;;;;;;;;;;5008114;28;7269;-84
2023/06/15 16:26:04;;;;;;;;;;;;;;;;;;5006479;28;8914;-87
2023/06/15 16:28:32;;;;;;;;;;;;;;;;;;4974300;28;8533;-86
2023/06/15 16:30:59;;;;;;;;;;;;;;;;;;4973482;28;9252;-86
2023/06/15 16:33:25;;;;;;;;;;;;;;;;;;4973436;28;8654;-85
2023/06/15 16:35:52;;;;;;;;;;;;;;;;;;4974051;28;8812;-85
2023/06/15 16:38:17;;;;;;;;;;;;;;;;;;4973584;28;9367;-85
2023/06/15 16:40:47;;;;;;;;;;;;;;;;;;4973672;28;8535;-86
2023/06/15 16:43:13;;;;;;;;;;;;;;;;;;4973711;28;8859;-87
2023/06/15 16:45:40;;;;;;;;;;;;;;;;;;4973418;28;8538;-87
2023/06/15 16:48:06;;;;;;;;;;;;;;;;;;4973554;28;8993;-86
2023/06/15 16:50:31;;;;;;;;;;;;;;;;;;4973545;28;8554;-87
2023/06/15 16:52:58;;;;;;;;;;;;;;;;;;4973362;28;8506;-86
2023/06/15 16:55:23;;;;;;;;;;;;;;;;;;4973452;28;8582;-85
2023/06/15 16:57:50;;;;;;;;;;;;;;;;;;4973737;28;8600;-87
2023/06/15 17:00:16;;;;;;;;;;;;;;;;;;4973302;28;7185;-86